sensor_id;sensor_type;location;lat;lon;timestamp;P1;durP1;ratioP1;P2;durP2;ratioP2
28078;SDS011;15388;42.238;24.684;2023-10-13T00:00:33;12.65;;;7.90;;
28078;SDS011;15388;42.238;24.684;2023-10-13T00:03:05;15.18;;;7.78;;
28078;SDS011;15388;42.238;24.684;2023-10-13T00:05:31;17.55;;;6.38;;
28078;SDS011;15388;42.238;24.684;2023-10-13T00:07:58;18.73;;;7.38;;
28078;SDS011;15388;42.238;24.684;2023-10-13T00:10:26;15.38;;;7.13;;
28078;SDS011;15388;42.238;24.684;2023-10-13T00:12:55;12.30;;;7.00;;
28078;SDS011;15388;42.238;24.684;2023-10-13T00:15:31;23.08;;;7.40;;
28078;SDS011;15388;42.238;24.684;2023-10-13T00:18:06;13.27;;;6.93;;
28078;SDS011;15388;42.238;24.684;2023-10-13T00:20:38;14.63;;;5.93;;
28078;SDS011;15388;42.238;24.684;2023-10-13T00:23:05;11.40;;;5.70;;
28078;SDS011;15388;42.238;24.684;2023-10-13T00:25:31;14.07;;;5.63;;
28078;SDS011;15388;42.238;24.684;2023-10-13T00:28:08;8.23;;;4.85;;
28078;SDS011;15388;42.238;24.684;2023-10-13T00:30:34;12.13;;;6.07;;
28078;SDS011;15388;42.238;24.684;2023-10-13T00:33:00;11.57;;;5.85;;
28078;SDS011;15388;42.238;24.684;2023-10-13T00:35:29;18.92;;;6.80;;
28078;SDS011;15388;42.238;24.684;2023-10-13T00:38:01;13.63;;;5.60;;
28078;SDS011;15388;42.238;24.684;2023-10-13T00:40:48;11.07;;;5.75;;
28078;SDS011;15388;42.238;24.684;2023-10-13T00:43:20;10.10;;;5.15;;
28078;SDS011;15388;42.238;24.684;2023-10-13T00:45:48;13.63;;;5.90;;
28078;SDS011;15388;42.238;24.684;2023-10-13T00:48:31;8.57;;;5.75;;
28078;SDS011;15388;42.238;24.684;2023-10-13T00:50:59;8.23;;;5.13;;
28078;SDS011;15388;42.238;24.684;2023-10-13T00:53:28;7.45;;;4.68;;
28078;SDS011;15388;42.238;24.684;2023-10-13T00:55:58;12.63;;;5.57;;
28078;SDS011;15388;42.238;24.684;2023-10-13T00:58:33;7.30;;;4.75;;
28078;SDS011;15388;42.238;24.684;2023-10-13T01:01:02;5.93;;;4.70;;
28078;SDS011;15388;42.238;24.684;2023-10-13T01:03:53;9.63;;;5.43;;
28078;SDS011;15388;42.238;24.684;2023-10-13T01:06:24;9.73;;;4.05;;
28078;SDS011;15388;42.238;24.684;2023-10-13T01:08:56;11.37;;;5.23;;
28078;SDS011;15388;42.238;24.684;2023-10-13T01:11:39;14.05;;;5.25;;
28078;SDS011;15388;42.238;24.684;2023-10-13T01:14:08;7.95;;;4.45;;
28078;SDS011;15388;42.238;24.684;2023-10-13T01:16:36;15.27;;;5.50;;
28078;SDS011;15388;42.238;24.684;2023-10-13T01:19:05;9.95;;;4.90;;
28078;SDS011;15388;42.238;24.684;2023-10-13T01:21:31;8.93;;;5.23;;
28078;SDS011;15388;42.238;24.684;2023-10-13T01:23:58;8.23;;;5.43;;
28078;SDS011;15388;42.238;24.684;2023-10-13T01:26:23;10.60;;;5.25;;
28078;SDS011;15388;42.238;24.684;2023-10-13T01:29:07;12.45;;;4.22;;
28078;SDS011;15388;42.238;24.684;2023-10-13T01:31:37;12.60;;;4.97;;
28078;SDS011;15388;42.238;24.684;2023-10-13T01:34:10;13.27;;;8.15;;
28078;SDS011;15388;42.238;24.684;2023-10-13T01:36:37;14.27;;;5.50;;
28078;SDS011;15388;42.238;24.684;2023-10-13T01:41:30;13.55;;;5.32;;
28078;SDS011;15388;42.238;24.684;2023-10-13T01:43:55;11.15;;;5.10;;
28078;SDS011;15388;42.238;24.684;2023-10-13T01:46:22;9.23;;;5.95;;
28078;SDS011;15388;42.238;24.684;2023-10-13T01:48:47;11.20;;;5.05;;
28078;SDS011;15388;42.238;24.684;2023-10-13T01:51:13;13.75;;;6.30;;
28078;SDS011;15388;42.238;24.684;2023-10-13T01:53:39;9.80;;;5.80;;
28078;SDS011;15388;42.238;24.684;2023-10-13T01:56:06;16.33;;;5.68;;
28078;SDS011;15388;42.238;24.684;2023-10-13T01:58:37;13.48;;;5.38;;
28078;SDS011;15388;42.238;24.684;2023-10-13T02:01:06;21.60;;;8.32;;
28078;SDS011;15388;42.238;24.684;2023-10-13T02:03:32;12.48;;;5.68;;
28078;SDS011;15388;42.238;24.684;2023-10-13T02:05:58;18.00;;;6.25;;
28078;SDS011;15388;42.238;24.684;2023-10-13T02:08:29;12.32;;;6.45;;
28078;SDS011;15388;42.238;24.684;2023-10-13T02:10:55;10.63;;;6.95;;
28078;SDS011;15388;42.238;24.684;2023-10-13T02:13:23;11.13;;;5.05;;
28078;SDS011;15388;42.238;24.684;2023-10-13T02:15:53;16.15;;;5.75;;
28078;SDS011;15388;42.238;24.684;2023-10-13T02:18:28;12.05;;;6.25;;
28078;SDS011;15388;42.238;24.684;2023-10-13T02:21:01;32.25;;;7.57;;
28078;SDS011;15388;42.238;24.684;2023-10-13T02:23:37;87.70;;;10.60;;
28078;SDS011;15388;42.238;24.684;2023-10-13T02:26:08;37.75;;;8.57;;
28078;SDS011;15388;42.238;24.684;2023-10-13T02:28:39;32.45;;;7.63;;
28078;SDS011;15388;42.238;24.684;2023-10-13T02:31:05;15.57;;;5.65;;
28078;SDS011;15388;42.238;24.684;2023-10-13T02:33:32;20.48;;;5.97;;
28078;SDS011;15388;42.238;24.684;2023-10-13T02:35:58;24.90;;;6.72;;
28078;SDS011;15388;42.238;24.684;2023-10-13T02:38:28;14.40;;;6.22;;
28078;SDS011;15388;42.238;24.684;2023-10-13T02:41:11;23.15;;;7.57;;
28078;SDS011;15388;42.238;24.684;2023-10-13T02:43:44;29.27;;;6.32;;
28078;SDS011;15388;42.238;24.684;2023-10-13T02:46:09;17.50;;;4.63;;
28078;SDS011;15388;42.238;24.684;2023-10-13T02:48:34;7.72;;;5.05;;
28078;SDS011;15388;42.238;24.684;2023-10-13T02:51:06;25.23;;;7.25;;
28078;SDS011;15388;42.238;24.684;2023-10-13T02:53:45;17.20;;;5.03;;
28078;SDS011;15388;42.238;24.684;2023-10-13T02:56:14;24.20;;;7.13;;
28078;SDS011;15388;42.238;24.684;2023-10-13T02:58:45;21.13;;;5.60;;
28078;SDS011;15388;42.238;24.684;2023-10-13T03:01:18;7.15;;;4.53;;
28078;SDS011;15388;42.238;24.684;2023-10-13T03:03:50;10.50;;;4.63;;
28078;SDS011;15388;42.238;24.684;2023-10-13T03:06:19;6.50;;;4.57;;
28078;SDS011;15388;42.238;24.684;2023-10-13T03:08:57;12.55;;;5.15;;
28078;SDS011;15388;42.238;24.684;2023-10-13T03:11:38;5.68;;;4.15;;
28078;SDS011;15388;42.238;24.684;2023-10-13T03:14:12;6.53;;;4.32;;
28078;SDS011;15388;42.238;24.684;2023-10-13T03:16:49;8.82;;;3.97;;
28078;SDS011;15388;42.238;24.684;2023-10-13T03:19:18;17.88;;;6.13;;
28078;SDS011;15388;42.238;24.684;2023-10-13T03:21:45;15.07;;;4.80;;
28078;SDS011;15388;42.238;24.684;2023-10-13T03:24:20;9.90;;;4.85;;
28078;SDS011;15388;42.238;24.684;2023-10-13T03:26:58;12.20;;;4.65;;
28078;SDS011;15388;42.238;24.684;2023-10-13T03:29:37;16.33;;;6.53;;
28078;SDS011;15388;42.238;24.684;2023-10-13T03:32:08;11.00;;;6.03;;
28078;SDS011;15388;42.238;24.684;2023-10-13T03:34:37;13.00;;;5.32;;
28078;SDS011;15388;42.238;24.684;2023-10-13T03:37:11;18.05;;;6.25;;
28078;SDS011;15388;42.238;24.684;2023-10-13T03:39:43;18.60;;;9.77;;
28078;SDS011;15388;42.238;24.684;2023-10-13T03:42:10;28.88;;;8.60;;
28078;SDS011;15388;42.238;24.684;2023-10-13T03:44:43;23.15;;;13.70;;
28078;SDS011;15388;42.238;24.684;2023-10-13T03:47:12;19.67;;;11.27;;
28078;SDS011;15388;42.238;24.684;2023-10-13T03:49:51;16.80;;;7.38;;
28078;SDS011;15388;42.238;24.684;2023-10-13T03:52:39;28.45;;;8.65;;
28078;SDS011;15388;42.238;24.684;2023-10-13T03:55:05;14.25;;;6.97;;
28078;SDS011;15388;42.238;24.684;2023-10-13T03:57:32;11.68;;;5.40;;
28078;SDS011;15388;42.238;24.684;2023-10-13T04:00:03;45.88;;;7.78;;
28078;SDS011;15388;42.238;24.684;2023-10-13T04:02:46;13.65;;;5.95;;
28078;SDS011;15388;42.238;24.684;2023-10-13T04:05:18;35.58;;;7.40;;
28078;SDS011;15388;42.238;24.684;2023-10-13T04:08:03;30.60;;;7.40;;
28078;SDS011;15388;42.238;24.684;2023-10-13T04:11:05;10.75;;;6.05;;
28078;SDS011;15388;42.238;24.684;2023-10-13T04:13:49;11.38;;;5.75;;
28078;SDS011;15388;42.238;24.684;2023-10-13T04:16:34;16.55;;;6.82;;
28078;SDS011;15388;42.238;24.684;2023-10-13T04:19:03;28.10;;;8.38;;
28078;SDS011;15388;42.238;24.684;2023-10-13T04:21:28;19.70;;;7.03;;
28078;SDS011;15388;42.238;24.684;2023-10-13T04:24:22;21.75;;;7.57;;
28078;SDS011;15388;42.238;24.684;2023-10-13T04:27:00;11.02;;;6.75;;
28078;SDS011;15388;42.238;24.684;2023-10-13T04:29:54;21.35;;;8.55;;
28078;SDS011;15388;42.238;24.684;2023-10-13T04:32:34;20.08;;;7.90;;
28078;SDS011;15388;42.238;24.684;2023-10-13T04:35:12;19.10;;;8.38;;
28078;SDS011;15388;42.238;24.684;2023-10-13T04:37:38;15.30;;;8.18;;
28078;SDS011;15388;42.238;24.684;2023-10-13T04:40:19;33.03;;;9.38;;
28078;SDS011;15388;42.238;24.684;2023-10-13T04:42:49;19.67;;;8.75;;
28078;SDS011;15388;42.238;24.684;2023-10-13T04:45:22;29.58;;;11.02;;
28078;SDS011;15388;42.238;24.684;2023-10-13T04:48:10;26.33;;;11.02;;
